Time;durP1;ratioP1;P1;durP2;ratioP2;P2;SDS_P1;SDS_P2;PMS_P1;PMS_P2;Temp;Humidity;BMP_temperature;BMP_pressure;BME280_temperature;BME280_humidity;BME280_pressure;Samples;Min_cycle;Max_cycle;Signal;HPM_P1;HPM_P2
2022/05/10 00:01:41;;;;;;;6.07;1.05;;;;;;;16.83;100.00;99554.50;7391121;19;20011;-50
2022/05/10 00:04:10;;;;;;;0.77;0.63;;;;;;;16.82;100.00;99564.22;7390795;19;20355;-50
2022/05/10 00:06:45;;;;;;;0.45;0.45;;;;;;;16.79;100.00;99551.19;7391167;19;20069;-50
2022/05/10 00:09:14;;;;;;;2.38;0.65;;;;;;;16.78;100.00;99544.84;7392490;19;20029;-50
2022/05/10 00:11:41;;;;;;;1.40;0.60;;;;;;;16.80;100.00;99542.25;7391938;19;20014;-50
2022/05/10 00:14:07;;;;;;;2.92;0.30;;;;;;;16.70;100.00;99538.25;7389898;19;20041;-50
2022/05/10 00:16:39;;;;;;;0.90;0.50;;;;;;;16.71;100.00;99539.00;7390169;19;20013;-50
2022/05/10 00:19:05;;;;;;;2.28;0.63;;;;;;;16.71;100.00;99544.63;7391174;19;20016;-50
2022/05/10 00:21:31;;;;;;;0.52;0.35;;;;;;;16.68;100.00;99541.59;7390439;19;20357;-50
2022/05/10 00:23:57;;;;;;;0.52;0.50;;;;;;;16.72;100.00;99546.91;7389828;19;20774;-50
2022/05/10 00:26:24;;;;;;;0.40;0.30;;;;;;;16.75;100.00;99550.72;7389898;19;20014;-50
2022/05/10 00:28:50;;;;;;;4.65;0.47;;;;;;;16.73;100.00;99536.44;7391137;19;20457;-50
2022/05/10 00:31:17;;;;;;;0.65;0.20;;;;;;;16.70;100.00;99545.94;7385873;19;20010;-50
2022/05/10 00:33:45;;;;;;;1.67;0.85;;;;;;;16.70;100.00;99540.31;7390395;19;20021;-50
2022/05/10 00:36:13;;;;;;;2.17;0.90;;;;;;;16.65;100.00;99531.38;7389534;19;20363;-50
2022/05/10 00:38:40;;;;;;;0.30;0.20;;;;;;;16.64;100.00;99532.69;7389700;19;20025;-50
2022/05/10 00:41:48;;;;;;;0.38;0.38;;;;;;;16.58;100.00;99531.22;7393337;19;20007;-50
2022/05/10 00:44:20;;;;;;;0.95;0.57;;;;;;;16.53;100.00;99524.34;7389561;19;20017;-50
2022/05/10 00:47:13;;;;;;;1.30;0.88;;;;;;;16.51;100.00;99532.53;7390113;19;20014;-50
2022/05/10 00:49:54;;;;;;;0.25;0.25;;;;;;;16.47;100.00;99520.03;7390656;19;20367;-50
2022/05/10 00:52:48;;;;;;;9.05;1.63;;;;;;;16.48;100.00;99511.06;7389873;19;20011;-50
2022/05/10 00:55:19;;;;;;;0.95;0.40;;;;;;;16.44;100.00;99515.44;7389688;19;20030;-50
2022/05/10 00:57:55;;;;;;;1.40;0.52;;;;;;;16.38;100.00;99518.31;7389291;19;20011;-50
2022/05/10 01:00:24;;;;;;;0.90;0.55;;;;;;;16.30;100.00;99506.13;7392754;19;20017;-50
2022/05/10 01:03:11;;;;;;;2.60;0.60;;;;;;;16.19;100.00;99511.81;7390620;19;20014;-50
2022/05/10 01:06:02;;;;;;;2.13;0.38;;;;;;;16.16;100.00;99514.91;7396333;19;20019;-50
2022/05/10 01:08:51;;;;;;;1.88;0.30;;;;;;;16.10;100.00;99508.56;7396189;19;20034;-50
2022/05/10 01:11:25;;;;;;;2.75;0.68;;;;;;;15.94;100.00;99498.97;7396302;19;20431;-50
2022/05/10 01:14:14;;;;;;;0.82;0.40;;;;;;;15.97;100.00;99495.13;7394970;19;20089;-50
2022/05/10 01:16:40;;;;;;;4.88;0.68;;;;;;;16.01;100.00;99486.41;7395621;19;20015;-50
2022/05/10 01:19:07;;;;;;;0.68;0.30;;;;;;;15.97;100.00;99483.88;7397721;19;20361;-50
2022/05/10 01:21:49;;;;;;;0.60;0.40;;;;;;;16.01;100.00;99480.78;7397800;19;20010;-50
2022/05/10 01:24:43;;;;;;;2.70;0.73;;;;;;;16.01;100.00;99480.78;7396038;19;20455;-50
2022/05/10 01:27:35;;;;;;;0.63;0.30;;;;;;;15.93;100.00;99470.13;7394912;19;20518;-50
2022/05/10 01:30:01;;;;;;;1.58;0.22;;;;;;;15.87;100.00;99468.66;7399109;19;20010;-50
2022/05/10 01:35:27;;;;;;;2.60;0.88;;;;;;;15.80;100.00;99463.59;7395958;19;20007;-50
2022/05/10 01:37:58;;;;;;;0.43;0.25;;;;;;;15.77;100.00;99459.78;7394843;19;20026;-50
2022/05/10 01:40:35;;;;;;;4.57;1.17;;;;;;;15.79;100.00;99457.22;7398872;19;20018;-50
2022/05/10 01:43:13;;;;;;;0.47;0.38;;;;;;;15.74;100.00;99448.84;7394852;19;20011;-50
2022/05/10 01:45:46;;;;;;;0.40;0.40;;;;;;;15.74;100.00;99443.22;7393164;19;20018;-50
2022/05/10 01:48:17;;;;;;;0.60;0.30;;;;;;;15.65;100.00;99440.72;7394845;19;20046;-50
2022/05/10 01:51:02;;;;;;;2.78;1.05;;;;;;;15.62;100.00;99436.13;7394067;19;20014;-50
2022/05/10 01:53:37;;;;;;;0.45;0.30;;;;;;;15.61;100.00;99434.63;7395098;19;20015;-50
2022/05/10 01:56:05;;;;;;;2.55;1.27;;;;;;;15.59;100.00;99437.19;7395003;19;20018;-50
2022/05/10 01:58:35;;;;;;;0.30;0.25;;;;;;;15.75;100.00;99442.69;7395815;19;20048;-50
2022/05/10 02:01:08;;;;;;;0.43;0.20;;;;;;;15.83;100.00;99446.44;7393927;19;20353;-50
2022/05/10 02:03:45;;;;;;;1.10;0.65;;;;;;;15.93;100.00;99450.47;7393159;19;20010;-50
2022/05/10 02:06:33;;;;;;;0.30;0.20;;;;;;;15.92;100.00;99453.78;7393943;19;20110;-51
2022/05/10 02:09:05;;;;;;;0.73;0.45;;;;;;;15.94;100.00;99448.41;7393167;19;20033;-50
2022/05/10 02:11:36;;;;;;;0.45;0.45;;;;;;;16.04;100.00;99440.44;7394894;19;20018;-50
2022/05/10 02:14:06;;;;;;;0.82;0.45;;;;;;;16.04;100.00;99446.81;7393050;19;20007;-50
2022/05/10 02:16:46;;;;;;;0.57;0.45;;;;;;;16.06;100.00;99449.09;7393294;19;20014;-50
2022/05/10 02:19:34;;;;;;;0.43;0.43;;;;;;;16.09;100.00;99446.00;7395092;19;20011;-50
2022/05/10 02:22:08;;;;;;;4.80;1.58;;;;;;;16.12;100.00;99447.78;7396100;19;20033;-50
2022/05/10 02:24:45;;;;;;;1.95;0.80;;;;;;;16.12;100.00;99436.53;7392659;19;20458;-50
2022/05/10 02:27:16;;;;;;;6.07;0.77;;;;;;;16.00;100.00;99437.16;7394083;19;20047;-50
2022/05/10 02:29:48;;;;;;;0.45;0.43;;;;;;;16.07;100.00;99431.72;7396493;19;20032;-50
2022/05/10 02:35:14;;;;;;;1.27;0.57;;;;;;;16.17;100.00;99424.50;7393260;19;20363;-50
2022/05/10 02:37:40;;;;;;;0.70;0.70;;;;;;;16.19;100.00;99426.78;7393481;19;20022;-50
2022/05/10 02:40:08;;;;;;;0.85;0.45;;;;;;;16.16;100.00;99422.94;7396968;19;20046;-50
2022/05/10 02:42:34;;;;;;;0.52;0.20;;;;;;;16.16;100.00;99417.34;7393474;19;20014;-50
2022/05/10 02:45:03;;;;;;;0.88;0.80;;;;;;;16.02;100.00;99418.50;7393329;19;20023;-50
2022/05/10 02:47:44;;;;;;;1.05;0.95;;;;;;;15.84;100.00;99419.13;7393604;19;20019;-50
2022/05/10 02:50:27;;;;;;;0.40;0.40;;;;;;;15.70;100.00;99415.41;7396450;19;20572;-50
2022/05/10 02:52:53;;;;;;;0.95;0.60;;;;;;;15.69;100.00;99413.13;7393648;19;20126;-50
2022/05/10 02:55:42;;;;;;;0.40;0.40;;;;;;;15.79;100.00;99411.50;7392045;19;20010;-50
2022/05/10 02:58:17;;;;;;;0.95;0.30;;;;;;;15.85;100.00;99398.22;7393103;19;20011;-50
2022/05/10 03:00:45;;;;;;;2.05;0.80;;;;;;;15.78;100.00;99404.38;7393432;19;20014;-50
2022/05/10 03:03:17;;;;;;;0.82;0.40;;;;;;;15.74;100.00;99398.28;7393526;19;20014;-50
2022/05/10 03:05:43;;;;;;;18.30;1.08;;;;;;;15.79;100.00;99400.28;7393284;19;20006;-50
2022/05/10 03:08:10;;;;;;;1.20;0.75;;;;;;;15.79;100.00;99389.03;7392794;19;20016;-50
2022/05/10 03:10:36;;;;;;;3.30;0.77;;;;;;;15.79;100.00;99380.63;7396237;19;20014;-50
2022/05/10 03:13:02;;;;;;;1.08;0.68;;;;;;;15.77;100.00;99386.00;7390800;19;20014;-50
2022/05/10 03:15:28;;;;;;;0.45;0.10;;;;;;;15.76;100.00;99378.88;7392689;19;20010;-50
2022/05/10 03:17:56;;;;;;;2.90;1.00;;;;;;;15.68;100.00;99377.94;7392524;19;20015;-50
2022/05/10 03:20:22;;;;;;;2.30;0.60;;;;;;;15.64;100.00;99378.19;7396202;19;20027;-50
2022/05/10 03:22:48;;;;;;;0.77;0.68;;;;;;;15.64;100.00;99374.63;7396529;19;20015;-50
2022/05/10 03:25:15;;;;;;;0.10;0.10;;;;;;;15.63;100.00;99381.53;7391671;19;20006;-50
2022/05/10 03:27:42;;;;;;;0.95;0.60;;;;;;;15.59;100.00;99381.06;7391443;19;20015;-50
2022/05/10 03:30:08;;;;;;;7.30;0.63;;;;;;;15.63;100.00;99375.91;7394818;19;20045;-50
2022/05/10 03:32:37;;;;;;;2.83;0.85;;;;;;;15.69;100.00;99376.63;7390169;19;20056;-50
2022/05/10 03:35:04;;;;;;;3.38;0.75;;;;;;;15.74;100.00;99381.44;7390639;19;20014;-50
2022/05/10 03:37:31;;;;;;;3.20;0.40;;;;;;;15.79;100.00;99372.19;7390132;19;20018;-50
2022/05/10 03:39:59;;;;;;;0.85;0.85;;;;;;;15.82;100.00;99371.94;7393032;19;20031;-50
2022/05/10 03:42:26;;;;;;;0.70;0.35;;;;;;;15.89;100.00;99370.59;7389325;19;20420;-50
2022/05/10 03:44:52;;;;;;;1.02;0.43;;;;;;;15.87;100.00;99373.91;7389267;19;20361;-50
2022/05/10 03:47:24;;;;;;;7.93;1.05;;;;;;;15.82;100.00;99376.78;7389278;19;20043;-50
2022/05/10 03:49:50;;;;;;;1.15;0.52;;;;;;;15.93;100.00;99383.06;7391307;19;20035;-50
2022/05/10 03:52:16;;;;;;;0.85;0.35;;;;;;;16.00;100.00;99381.75;7389169;19;20102;-50
2022/05/10 03:54:44;;;;;;;0.68;0.30;;;;;;;16.01;100.00;99377.63;7391580;19;20014;-50
2022/05/10 03:57:10;;;;;;;1.23;0.77;;;;;;;16.02;100.00;99378.41;7391318;19;20015;-50
2022/05/10 03:59:41;;;;;;;0.95;0.90;;;;;;;16.06;100.00;99384.50;7393465;19;20480;-50
2022/05/10 04:02:12;;;;;;;1.27;0.57;;;;;;;16.08;100.00;99371.44;7391245;19;20003;-50
2022/05/10 04:04:39;;;;;;;1.17;0.63;;;;;;;16.09;100.00;99383.44;7389652;19;20017;-50
2022/05/10 04:07:06;;;;;;;1.23;0.20;;;;;;;16.14;100.00;99379.81;7390017;19;20021;-50
2022/05/10 04:09:33;;;;;;;1.88;0.73;;;;;;;16.19;100.00;99376.97;7393890;19;20014;-50
2022/05/10 04:11:59;;;;;;;3.88;0.82;;;;;;;16.26;100.00;99381.25;7394772;19;20014;-51
2022/05/10 04:14:25;;;;;;;1.10;0.65;;;;;;;16.31;100.00;99383.22;7390684;19;20454;-50
2022/05/10 04:16:52;;;;;;;0.65;0.57;;;;;;;16.33;100.00;99375.03;7390881;19;20014;-50
2022/05/10 04:19:18;;;;;;;1.85;0.75;;;;;;;16.35;100.00;99366.84;7392665;19;20024;-50
2022/05/10 04:21:44;;;;;;;1.25;0.35;;;;;;;16.32;100.00;99367.88;7392351;19;20107;-50
2022/05/10 04:24:10;;;;;;;0.98;0.28;;;;;;;16.33;100.00;99380.66;7390716;19;20011;-50
2022/05/10 04:26:37;;;;;;;1.50;0.80;;;;;;;16.35;100.00;99378.09;7390866;19;20014;-51
2022/05/10 04:29:03;;;;;;;2.17;0.88;;;;;;;16.42;100.00;99371.84;7393842;19;20078;-50
2022/05/10 04:31:31;;;;;;;3.53;0.90;;;;;;;16.45;100.00;99377.19;7390949;19;20011;-50
2022/05/10 04:33:57;;;;;;;4.78;1.23;;;;;;;16.42;100.00;99381.06;7390987;19;20489;-50
2022/05/10 04:36:25;;;;;;;3.35;0.60;;;;;;;16.37;100.00;99376.25;7390684;19;20066;-50
2022/05/10 04:38:51;;;;;;;0.85;0.40;;;;;;;16.31;100.00;99374.78;7389720;19;20014;-50
2022/05/10 04:41:30;;;;;;;2.00;0.82;;;;;;;16.24;100.00;99373.31;7392772;19;20493;-50
2022/05/10 04:44:01;;;;;;;0.50;0.30;;;;;;;16.21;100.00;99376.44;7389212;19;20014;-50
2022/05/10 04:46:30;;;;;;;0.85;0.45;;;;;;;16.19;100.00;99379.78;7389446;19;20015;-50
2022/05/10 04:48:57;;;;;;;0.75;0.65;;;;;;;16.23;100.00;99383.06;7391260;19;20363;-50
2022/05/10 04:51:24;;;;;;;1.27;0.82;;;;;;;16.18;100.00;99386.66;7387860;19;20109;-50
2022/05/10 04:53:53;;;;;;;1.83;0.90;;;;;;;16.17;100.00;99381.56;7389421;19;20428;-51
2022/05/10 04:56:19;;;;;;;1.27;0.40;;;;;;;16.27;100.00;99394.75;7389049;19;20014;-51
2022/05/10 04:58:46;;;;;;;0.43;0.43;;;;;;;16.18;100.00;99386.66;7390181;19;20010;-50
2022/05/10 05:01:14;;;;;;;0.65;0.30;;;;;;;15.96;100.00;99386.13;7387370;19;20007;-50
2022/05/10 05:03:48;;;;;;;0.30;0.30;;;;;;;15.81;100.00;99397.72;7388691;19;20021;-51
2022/05/10 05:06:17;;;;;;;1.00;0.40;;;;;;;15.75;100.00;99388.56;7389402;19;20028;-50
2022/05/10 05:08:45;;;;;;;0.52;0.35;;;;;;;15.72;100.00;99395.25;7389631;19;20006;-50
2022/05/10 05:11:11;;;;;;;0.65;0.50;;;;;;;15.77;100.00;99389.59;7391068;19;20478;-50
2022/05/10 05:13:38;;;;;;;0.50;0.15;;;;;;;15.77;100.00;99392.38;7388706;19;20370;-50
2022/05/10 05:16:05;;;;;;;0.30;0.30;;;;;;;15.66;100.00;99394.50;7389245;19;20021;-50
2022/05/10 05:18:31;;;;;;;1.30;0.60;;;;;;;15.56;100.00;99401.72;7387940;19;20086;-50
2022/05/10 05:20:57;;;;;;;2.08;0.52;;;;;;;15.52;100.00;99393.59;7388876;19;20006;-50
2022/05/10 05:23:23;;;;;;;0.80;0.57;;;;;;;15.61;100.00;99389.72;7393395;19;20028;-50
2022/05/10 05:25:55;;;;;;;0.68;0.40;;;;;;;15.50;100.00;99392.59;7389246;19;20014;-50
2022/05/10 05:28:23;;;;;;;0.50;0.50;;;;;;;15.41;100.00;99392.88;7388700;19;20019;-50
2022/05/10 05:30:50;;;;;;;3.30;0.52;;;;;;;15.38;100.00;99399.53;7388125;19;20007;-51
2022/05/10 05:33:16;;;;;;;0.30;0.22;;;;;;;15.34;100.00;99394.19;7388810;19;20007;-50
2022/05/10 05:35:43;;;;;;;7.97;0.80;;;;;;;15.29;100.00;99397.78;7389495;19;20037;-51
2022/05/10 05:38:09;;;;;;;5.45;0.32;;;;;;;15.32;100.00;99405.19;7393618;19;20348;-50
2022/05/10 05:40:37;;;;;;;0.10;0.10;;;;;;;15.30;100.00;99409.78;7396090;19;20045;-50
2022/05/10 05:43:04;;;;;;;0.10;0.10;;;;;;;15.15;100.00;99410.88;7391146;19;20015;-50
2022/05/10 05:45:30;;;;;;;0.25;0.20;;;;;;;15.09;100.00;99424.16;7389068;19;20013;-51
2022/05/10 05:48:01;;;;;;;0.30;0.30;;;;;;;15.10;100.00;99420.06;7389657;19;20462;-50
2022/05/10 05:50:27;;;;;;;0.30;0.30;;;;;;;14.99;100.00;99420.13;7397736;19;20021;-50
2022/05/10 05:52:54;;;;;;;1.85;0.52;;;;;;;15.00;100.00;99412.47;7395099;19;20011;-51
2022/05/10 05:55:21;;;;;;;0.32;0.32;;;;;;;14.91;100.00;99402.31;7394868;19;20561;-50
2022/05/10 05:57:47;;;;;;;1.13;0.25;;;;;;;14.95;100.00;99397.19;7395277;19;20014;-49
2022/05/10 06:00:21;;;;;;;4.22;0.75;;;;;;;15.08;100.00;99403.00;7399496;19;20359;-49
2022/05/10 06:02:50;;;;;;;0.47;0.30;;;;;;;15.07;100.00;99401.47;7392731;19;20018;-49
2022/05/10 06:05:16;;;;;;;0.10;0.10;;;;;;;15.09;100.00;99407.31;7394711;19;20007;-50
2022/05/10 06:07:43;;;;;;;3.97;1.25;;;;;;;15.15;100.00;99404.50;7394544;19;20031;-50
2022/05/10 06:10:10;;;;;;;0.10;0.10;;;;;;;15.22;100.00;99414.41;7398814;19;20014;-55
2022/05/10 06:12:37;;;;;;;5.32;0.75;;;;;;;15.37;100.00;99420.44;7393339;19;20018;-56
2022/05/10 06:15:10;;;;;;;1.65;0.65;;;;;;;15.51;100.00;99419.38;7394300;19;20033;-56
2022/05/10 06:17:39;;;;;;;0.40;0.30;;;;;;;15.68;100.00;99422.84;7394476;19;20029;-56
2022/05/10 06:20:09;;;;;;;5.30;0.47;;;;;;;15.82;100.00;99416.88;7396840;19;20014;-57
2022/05/10 06:22:36;;;;;;;0.15;0.10;;;;;;;16.09;100.00;99417.91;7397890;19;20014;-57
2022/05/10 06:25:04;;;;;;;5.57;0.40;;;;;;;16.33;100.00;99415.13;7394152;19;20473;-57
2022/05/10 06:27:30;;;;;;;1.30;0.90;;;;;;;16.51;100.00;99425.72;7393598;19;20072;-56
2022/05/10 06:29:56;;;;;;;3.58;0.90;;;;;;;16.41;100.00;99421.72;7395237;19;20010;-57
2022/05/10 06:32:24;;;;;;;1.25;0.60;;;;;;;16.41;100.00;99432.19;7391416;19;20006;-57
2022/05/10 06:34:52;;;;;;;0.77;0.30;;;;;;;16.42;100.00;99426.03;7394298;19;20014;-57
2022/05/10 06:40:10;;;;;;;0.10;0.10;;;;;;;16.60;100.00;99431.00;7396837;19;20060;-56
2022/05/10 06:42:36;;;;;;;9.32;0.52;;;;;;;16.64;100.00;99431.47;7393966;19;20014;-56
2022/05/10 06:45:08;;;;;;;0.30;0.10;;;;;;;16.66;100.00;99439.34;7393635;19;20081;-57
2022/05/10 06:47:36;;;;;;;4.32;1.23;;;;;;;16.73;100.00;99435.97;7392507;19;20467;-57
2022/05/10 06:50:07;;;;;;;1.85;0.73;;;;;;;16.71;100.00;99440.59;7395650;19;20014;-56
2022/05/10 06:52:33;;;;;;;0.85;0.20;;;;;;;16.77;100.00;99427.22;7393374;19;20018;-56
2022/05/10 06:54:59;;;;;;;1.50;0.75;;;;;;;16.78;100.00;99420.31;7393567;19;20034;-57
2022/05/10 06:57:26;;;;;;;1.90;0.38;;;;;;;16.72;100.00;99428.81;7393781;19;20019;-56
2022/05/10 06:59:55;;;;;;;11.27;0.80;;;;;;;16.79;100.00;99425.41;7395418;19;20011;-58
2022/05/10 07:02:23;;;;;;;3.47;0.98;;;;;;;16.75;100.00;99418.56;7392118;19;20047;-57
2022/05/10 07:04:49;;;;;;;5.22;0.32;;;;;;;16.76;100.00;99418.03;7391806;19;20018;-57
2022/05/10 07:07:15;;;;;;;9.57;0.85;;;;;;;16.82;100.00;99420.78;7392652;19;20015;-57
2022/05/10 07:09:41;;;;;;;4.35;0.55;;;;;;;16.92;100.00;99425.50;7396231;19;20014;-58
2022/05/10 07:12:08;;;;;;;4.82;0.28;;;;;;;17.01;100.00;99433.59;7390464;19;20022;-57
2022/05/10 07:14:34;;;;;;;0.85;0.50;;;;;;;17.21;100.00;99435.91;7392239;19;20010;-57
2022/05/10 07:17:01;;;;;;;1.30;0.30;;;;;;;17.36;100.00;99441.06;7393255;19;20014;-57
2022/05/10 07:19:27;;;;;;;0.45;0.35;;;;;;;17.52;100.00;99437.28;7394368;19;20481;-57
2022/05/10 07:21:53;;;;;;;2.55;0.63;;;;;;;17.65;100.00;99434.53;7394018;19;20014;-57
2022/05/10 07:24:20;;;;;;;0.60;0.45;;;;;;;17.65;100.00;99434.53;7391757;19;20480;-57
2022/05/10 07:26:47;;;;;;;1.65;0.40;;;;;;;17.74;100.00;99436.97;7392202;19;20070;-57
2022/05/10 07:29:15;;;;;;;7.22;0.82;;;;;;;17.77;100.00;99438.72;7394272;19;20115;-57
2022/05/10 07:31:42;;;;;;;3.53;1.00;;;;;;;17.82;100.00;99443.50;7389401;19;20510;-57
2022/05/10 07:34:08;;;;;;;1.55;0.30;;;;;;;17.74;100.00;99431.31;7391948;19;20007;-57
2022/05/10 07:36:34;;;;;;;13.57;0.85;;;;;;;17.68;100.00;99419.41;7392111;19;20018;-57
2022/05/10 07:39:03;;;;;;;0.85;0.28;;;;;;;17.66;100.00;99432.47;7392964;19;20007;-57
2022/05/10 07:41:30;;;;;;;0.63;0.20;;;;;;;17.64;100.00;99432.25;7391463;19;20010;-57
2022/05/10 07:43:56;;;;;;;5.85;0.65;;;;;;;17.56;100.00;99420.09;7390737;19;20074;-57
2022/05/10 07:46:23;;;;;;;0.38;0.20;;;;;;;17.59;100.00;99407.75;7391654;19;20402;-57
2022/05/10 07:48:50;;;;;;;0.32;0.30;;;;;;;17.66;100.00;99416.34;7392097;19;20025;-57
2022/05/10 07:51:17;;;;;;;0.85;0.40;;;;;;;17.60;100.00;99421.31;7389556;19;20032;-57
2022/05/10 07:53:44;;;;;;;4.47;0.43;;;;;;;17.54;100.00;99417.81;7391248;19;20074;-57
2022/05/10 07:56:15;;;;;;;4.13;0.73;;;;;;;17.44;100.00;99413.81;7391145;19;20059;-58
2022/05/10 07:58:42;;;;;;;1.35;0.70;;;;;;;17.35;100.00;99417.78;7392512;19;20010;-57
2022/05/10 08:01:08;;;;;;;1.40;0.38;;;;;;;17.41;100.00;99417.72;7388963;19;20014;-57
2022/05/10 08:03:35;;;;;;;0.10;0.00;;;;;;;17.43;100.00;99427.13;7390399;19;20067;-57
2022/05/10 08:06:02;;;;;;;0.38;0.22;;;;;;;17.53;100.00;99427.56;7389923;19;20018;-57
2022/05/10 08:08:30;;;;;;;5.57;0.57;;;;;;;17.78;100.00;99426.16;7392567;19;20034;-57
2022/05/10 08:10:57;;;;;;;1.85;0.70;;;;;;;17.91;100.00;99431.81;7390276;19;20002;-57
2022/05/10 08:13:26;;;;;;;1.23;0.40;;;;;;;18.08;100.00;99432.31;7389006;19;20018;-56
2022/05/10 08:15:57;;;;;;;5.80;0.60;;;;;;;18.33;100.00;99437.81;7390457;19;20558;-56
2022/05/10 08:18:24;;;;;;;3.15;0.40;;;;;;;18.49;100.00;99437.56;7390249;19;20014;-57
2022/05/10 08:20:52;;;;;;;0.75;0.40;;;;;;;18.64;100.00;99434.19;7389443;19;20111;-58
2022/05/10 08:23:24;;;;;;;3.67;0.55;;;;;;;18.77;100.00;99439.84;7392529;19;20023;-58
2022/05/10 08:25:55;;;;;;;1.48;0.63;;;;;;;19.01;100.00;99448.09;7388143;19;20011;-58
2022/05/10 08:28:23;;;;;;;0.85;0.40;;;;;;;19.17;100.00;99452.63;7388621;19;20021;-58
2022/05/10 08:30:50;;;;;;;1.85;0.28;;;;;;;19.25;100.00;99452.75;7389108;19;20046;-58
2022/05/10 08:33:23;;;;;;;2.17;0.77;;;;;;;19.06;100.00;99461.31;7390892;19;20011;-58
2022/05/10 08:35:52;;;;;;;0.68;0.30;;;;;;;18.89;100.00;99452.44;7390100;19;20007;-57
2022/05/10 08:38:18;;;;;;;0.30;0.10;;;;;;;19.16;100.00;99450.34;7389733;19;20014;-57
2022/05/10 08:41:01;;;;;;;0.47;0.13;;;;;;;19.70;100.00;99458.19;7390130;19;20073;-57
2022/05/10 08:43:33;;;;;;;4.82;0.77;;;;;;;20.16;100.00;99451.72;7389604;19;20011;-57
2022/05/10 08:46:00;;;;;;;0.38;0.10;;;;;;;20.05;100.00;99441.44;7390226;19;20014;-57
2022/05/10 08:48:29;;;;;;;1.23;0.28;;;;;;;19.99;100.00;99449.28;7389047;19;20015;-58
2022/05/10 08:50:56;;;;;;;0.30;0.30;;;;;;;20.01;100.00;99457.97;7386890;19;20481;-57
2022/05/10 08:53:23;;;;;;;4.18;0.52;;;;;;;20.20;100.00;99447.25;7388686;19;20015;-57
2022/05/10 08:56:32;;;;;;;2.60;1.00;;;;;;;20.09;100.00;99452.38;7388796;19;20010;-57
2022/05/10 08:59:37;;;;;;;1.70;0.35;;;;;;;19.90;100.00;99454.66;7391060;19;20324;-59
2022/05/10 09:02:12;;;;;;;3.03;0.20;;;;;;;19.59;100.00;99454.31;7387747;19;20016;-58
2022/05/10 09:04:47;;;;;;;1.10;0.30;;;;;;;19.45;100.00;99458.47;7389023;19;20007;-58
2022/05/10 09:07:23;;;;;;;4.85;0.77;;;;;;;19.60;100.00;99458.66;7387173;19;20014;-57
2022/05/10 09:10:02;;;;;;;1.48;0.43;;;;;;;19.58;100.00;99452.78;7392962;19;20042;-58
2022/05/10 09:12:34;;;;;;;4.85;0.52;;;;;;;19.54;100.00;99455.19;7384430;19;20018;-57
2022/05/10 09:15:06;;;;;;;2.90;0.38;;;;;;;19.33;100.00;99451.53;7388910;19;20014;-58
2022/05/10 09:17:38;;;;;;;0.98;0.38;;;;;;;19.49;100.00;99453.25;7389719;19;20566;-58
2022/05/10 09:20:05;;;;;;;4.40;0.50;;;;;;;19.61;100.00;99446.06;7392904;19;20037;-57
2022/05/10 09:23:05;;;;;;;2.17;0.35;;;;;;;19.85;100.00;99455.53;7392024;19;20396;-58
2022/05/10 09:25:39;;;;;;;2.72;0.30;;;;;;;20.21;100.00;99450.81;7395860;19;20082;-58
2022/05/10 09:28:29;;;;;;;4.57;0.85;;;;;;;20.49;100.00;99448.03;7396649;19;20082;-58
2022/05/10 09:36:52;;;;;;;3.00;0.20;;;;;;;20.24;100.00;99469.53;7395848;19;20024;-58
2022/05/10 09:39:34;;;;;;;3.30;0.40;;;;;;;20.48;100.00;99462.75;7399035;19;20011;-58
2022/05/10 09:42:01;;;;;;;4.13;0.57;;;;;;;20.66;100.00;99464.59;7396344;19;20006;-59
2022/05/10 09:44:29;;;;;;;0.57;0.35;;;;;;;20.83;100.00;99465.66;7395248;19;20632;-58
2022/05/10 09:47:13;;;;;;;1.13;0.20;;;;;;;21.13;100.00;99465.88;7396039;19;20573;-58
2022/05/10 09:49:40;;;;;;;1.23;0.30;;;;;;;21.23;100.00;99471.78;7397285;19;20014;-58
2022/05/10 09:52:17;;;;;;;0.30;0.10;;;;;;;21.04;100.00;99472.06;7393211;19;20015;-58
2022/05/10 09:54:44;;;;;;;14.20;0.43;;;;;;;20.91;100.00;99468.53;7395301;19;20010;-52
2022/05/10 09:57:25;;;;;;;3.30;0.28;;;;;;;20.71;100.00;99470.09;7394788;19;20015;-52
2022/05/10 09:59:51;;;;;;;1.20;0.20;;;;;;;20.82;100.00;99461.31;7398767;19;20047;-52
2022/05/10 10:02:38;;;;;;;3.95;0.55;;;;;;;20.88;100.00;99459.09;7393209;19;20011;-52
2022/05/10 10:05:30;;;;;;;1.75;0.50;;;;;;;20.97;100.00;99464.25;7395056;19;20015;-52
2022/05/10 10:07:58;;;;;;;1.55;0.77;;;;;;;20.73;100.00;99456.16;7395716;19;20324;-52
2022/05/10 10:10:25;;;;;;;6.60;0.68;;;;;;;20.68;100.00;99450.66;7397273;19;20033;-52
2022/05/10 10:12:52;;;;;;;0.75;0.17;;;;;;;20.66;100.00;99454.00;7394389;19;20015;-52
2022/05/10 10:15:40;;;;;;;5.93;0.40;;;;;;;20.68;100.00;99457.06;7394023;19;20062;-52
2022/05/10 10:18:10;;;;;;;3.05;0.30;;;;;;;20.72;100.00;99449.00;7394712;19;20010;-52
2022/05/10 10:20:36;;;;;;;1.45;0.10;;;;;;;20.66;100.00;99453.28;7399363;19;20018;-52
2022/05/10 10:23:13;;;;;;;0.65;0.38;;;;;;;20.40;100.00;99457.00;7395590;19;20405;-52
2022/05/10 10:25:47;;;;;;;0.10;0.10;;;;;;;20.35;100.00;99450.22;7394155;19;20014;-51
2022/05/10 10:28:27;;;;;;;9.23;0.40;;;;;;;20.28;100.00;99458.63;7394330;19;20006;-52
2022/05/10 10:30:59;;;;;;;0.10;0.10;;;;;;;20.05;100.00;99451.97;7393950;19;20015;-51
2022/05/10 10:33:34;;;;;;;0.28;0.10;;;;;;;20.08;100.00;99439.56;7394887;19;20015;-52
2022/05/10 10:36:14;;;;;;;0.65;0.17;;;;;;;20.28;100.00;99444.47;7392832;19;20015;-52
2022/05/10 10:38:52;;;;;;;1.73;0.57;;;;;;;20.29;100.00;99437.53;7393463;19;20351;-52
2022/05/10 10:41:30;;;;;;;0.10;0.03;;;;;;;20.38;100.00;99446.25;7394336;19;20337;-52
2022/05/10 10:44:20;;;;;;;1.40;0.30;;;;;;;20.23;100.00;99448.97;7394704;19;20042;-52
2022/05/10 10:47:00;;;;;;;1.83;0.40;;;;;;;20.18;100.00;99449.09;7393945;19;20011;-52
2022/05/10 10:49:59;;;;;;;5.82;0.52;;;;;;;20.21;100.00;99459.31;7396159;19;20499;-52
2022/05/10 10:52:28;;;;;;;0.10;0.08;;;;;;;20.17;100.00;99453.22;7391745;19;20015;-52
2022/05/10 10:54:55;;;;;;;0.43;0.17;;;;;;;20.04;100.00;99464.59;7393300;19;20022;-52
2022/05/10 10:57:38;;;;;;;5.88;0.40;;;;;;;20.08;100.00;99454.44;7393123;19;20062;-53
2022/05/10 11:00:07;;;;;;;0.10;0.10;;;;;;;20.09;100.00;99458.03;7396285;19;20010;-53
2022/05/10 11:02:53;;;;;;;2.45;0.20;;;;;;;19.79;100.00;99457.75;7392807;19;20030;-52
2022/05/10 11:05:32;;;;;;;2.30;0.30;;;;;;;19.67;100.00;99446.69;7392588;19;20023;-52
2022/05/10 11:08:23;;;;;;;0.63;0.40;;;;;;;19.90;100.00;99446.19;7388220;19;20510;-53
2022/05/10 11:11:03;;;;;;;2.78;0.30;;;;;;;20.34;100.00;99448.69;7387911;19;20011;-53
2022/05/10 11:14:00;;;;;;;1.98;0.20;;;;;;;20.56;100.00;99427.53;7389743;19;20011;-53
2022/05/10 11:16:26;;;;;;;0.90;0.10;;;;;;;20.87;100.00;99434.16;7390280;19;20345;-52
2022/05/10 11:19:15;;;;;;;2.28;0.20;;;;;;;21.17;100.00;99447.75;7390756;19;20014;-52
2022/05/10 11:21:44;;;;;;;1.77;0.20;;;;;;;21.40;100.00;99438.03;7391160;19;20006;-52
2022/05/10 11:24:17;;;;;;;3.42;0.30;;;;;;;21.67;100.00;99436.44;7392870;19;20411;-50
2022/05/10 11:27:09;;;;;;;0.25;0.05;;;;;;;21.95;100.00;99444.09;7392054;19;20016;-50
2022/05/10 11:30:13;;;;;;;0.10;0.00;;;;;;;22.06;100.00;99431.63;7394613;19;20066;-52
2022/05/10 11:33:11;;;;;;;0.20;0.10;;;;;;;22.33;97.35;99415.75;7390316;19;20050;-52
2022/05/10 11:35:44;;;;;;;1.73;0.40;;;;;;;22.22;96.24;99416.88;7392513;19;20014;-52
2022/05/10 11:38:45;;;;;;;0.40;0.00;;;;;;;22.31;95.42;99419.16;7392371;19;20018;-52
2022/05/10 11:41:30;;;;;;;1.05;0.10;;;;;;;22.49;95.14;99422.94;7391576;19;20010;-52
2022/05/10 11:43:56;;;;;;;5.55;0.15;;;;;;;22.76;94.68;99423.31;7392252;19;20446;-52
2022/05/10 11:46:36;;;;;;;9.68;0.95;;;;;;;22.69;98.30;99421.25;7390923;19;20014;-52
2022/05/10 11:49:37;;;;;;;2.47;0.10;;;;;;;22.57;95.92;99429.38;7388963;19;20014;-52
2022/05/10 11:52:37;;;;;;;0.47;0.00;;;;;;;22.53;95.05;99435.44;7385938;19;20022;-52
2022/05/10 11:55:09;;;;;;;2.00;0.23;;;;;;;22.19;88.89;99432.22;7391271;19;20006;-53
2022/05/10 11:57:37;;;;;;;0.47;0.10;;;;;;;21.69;89.66;99424.53;7390843;19;20010;-52
2022/05/10 12:00:31;;;;;;;1.40;0.20;;;;;;;21.26;91.26;99441.56;7394573;19;20045;-53
2022/05/10 12:03:02;;;;;;;4.47;0.40;;;;;;;20.99;93.97;99436.13;7391602;19;20025;-52